createdAt,value
2022-12-09T00:00:43.988Z,94661.03
2022-12-09T00:03:10.883Z,94647.34
2022-12-09T00:05:40.272Z,94642.09
2022-12-09T00:08:07.462Z,94644.50
2022-12-09T00:10:34.296Z,94648.13
2022-12-09T00:13:00.956Z,94653.34
2022-12-09T00:15:27.575Z,94658.34
2022-12-09T00:17:54.428Z,94645.44
2022-12-09T00:20:21.034Z,94640.41
2022-12-09T00:22:47.868Z,94626.75
2022-12-09T00:25:14.748Z,94630.97
2022-12-09T00:27:41.614Z,94624.25
2022-12-09T00:30:08.947Z,94636.22
2022-12-09T00:32:35.886Z,94636.28
2022-12-09T00:35:04.422Z,94632.81
2022-12-09T00:37:31.031Z,94621.75
2022-12-09T00:39:58.430Z,94621.78
2022-12-09T00:42:25.229Z,94610.03
2022-12-09T00:44:52.098Z,94621.44
2022-12-09T00:47:19.351Z,94607.47
2022-12-09T00:49:45.962Z,94612.44
2022-12-09T00:52:12.535Z,94611.81
2022-12-09T00:54:39.221Z,94602.34
2022-12-09T00:57:06.069Z,94614.28
2022-12-09T00:59:33.689Z,94618.59
2022-12-09T01:02:00.457Z,94619.50
2022-12-09T01:04:27.196Z,94619.63
2022-12-09T01:06:53.847Z,94617.94
2022-12-09T01:09:20.469Z,94625.72
2022-12-09T01:11:47.059Z,94623.97
2022-12-09T01:14:13.781Z,94629.28
2022-12-09T01:16:40.573Z,94631.63
2022-12-09T01:19:10.417Z,94629.75
2022-12-09T01:21:37.432Z,94620.38
2022-12-09T01:24:09.194Z,94617.00
2022-12-09T01:26:36.978Z,94618.13
2022-12-09T01:29:04.432Z,94621.53
2022-12-09T01:31:31.350Z,94622.16
2022-12-09T01:33:58.085Z,94618.78
2022-12-09T01:36:28.622Z,94613.66
2022-12-09T01:38:58.886Z,94615.63
2022-12-09T01:41:27.482Z,94609.75
2022-12-09T01:44:27.457Z,94595.13
2022-12-09T01:46:56.116Z,94596.66
2022-12-09T01:49:34.957Z,94595.00
2022-12-09T01:52:07.572Z,94588.25
2022-12-09T01:54:35.250Z,94588.19
2022-12-09T01:57:04.348Z,94579.66
2022-12-09T01:59:31.451Z,94580.69
2022-12-09T02:02:00.873Z,94584.19
2022-12-09T02:04:32.095Z,94586.28
2022-12-09T02:07:02.640Z,94587.69
2022-12-09T02:09:29.978Z,94583.50
2022-12-09T02:12:14.060Z,94589.41
2022-12-09T02:14:46.980Z,94584.47
2022-12-09T02:17:33.020Z,94592.16
2022-12-09T02:20:22.932Z,94580.97
2022-12-09T02:23:00.486Z,94577.50
2022-12-09T02:25:36.490Z,94569.78
2022-12-09T02:28:41.603Z,94572.59
2022-12-09T02:31:38.258Z,94561.31
2022-12-09T02:34:25.049Z,94557.00
2022-12-09T02:37:10.472Z,94550.19
2022-12-09T02:39:56.596Z,94547.59
2022-12-09T02:42:31.302Z,94531.38
2022-12-09T02:45:02.633Z,94540.88
2022-12-09T02:47:32.269Z,94543.41
2022-12-09T02:50:07.904Z,94536.88
2022-12-09T02:52:37.845Z,94541.81
2022-12-09T02:55:09.117Z,94523.81
2022-12-09T02:57:39.406Z,94538.31
2022-12-09T03:00:08.988Z,94539.13
2022-12-09T03:02:43.892Z,94529.00
2022-12-09T03:05:26.041Z,94529.81
2022-12-09T03:08:26.929Z,94528.28
2022-12-09T03:11:06.376Z,94525.53
2022-12-09T03:14:03.907Z,94526.38
2022-12-09T03:16:36.120Z,94520.44
2022-12-09T03:19:16.848Z,94516.13
2022-12-09T03:21:48.838Z,94505.91
2022-12-09T03:24:20.722Z,94500.91
2022-12-09T03:26:50.269Z,94496.63
2022-12-09T03:29:20.447Z,94491.34
2022-12-09T03:31:47.880Z,94487.06
2022-12-09T03:34:19.392Z,94485.34
2022-12-09T03:36:49.960Z,94481.06
2022-12-09T03:39:21.812Z,94483.97
2022-12-09T03:41:53.533Z,94488.00
2022-12-09T03:44:29.960Z,94488.72
2022-12-09T03:46:57.340Z,94470.75
2022-12-09T03:49:24.257Z,94466.66
2022-12-09T03:51:56.818Z,94470.00
2022-12-09T03:54:35.644Z,94462.22
2022-12-09T03:57:03.564Z,94460.34
2022-12-09T03:59:34.267Z,94475.72
2022-12-09T04:02:03.633Z,94472.28
2022-12-09T04:04:30.540Z,94463.06
2022-12-09T04:06:57.509Z,94463.00
2022-12-09T04:09:24.556Z,94465.63
2022-12-09T04:11:51.713Z,94465.63
2022-12-09T04:14:18.698Z,94457.88
2022-12-09T04:16:45.615Z,94447.72
2022-12-09T04:19:13.054Z,94445.09
2022-12-09T04:21:39.898Z,94434.94
2022-12-09T04:24:07.207Z,94428.03
2022-12-09T04:26:34.247Z,94434.03
2022-12-09T04:29:01.302Z,94430.66
2022-12-09T04:31:28.151Z,94428.78
2022-12-09T04:33:55.002Z,94423.06
2022-12-09T04:36:21.816Z,94417.03
2022-12-09T04:38:50.576Z,94414.50
2022-12-09T04:41:18.164Z,94417.88
2022-12-09T04:43:45.145Z,94411.94
2022-12-09T04:46:14.886Z,94413.56
2022-12-09T04:48:42.507Z,94415.22
2022-12-09T04:51:13.733Z,94411.06
2022-12-09T04:53:41.408Z,94397.38
2022-12-09T04:56:19.155Z,94410.16
2022-12-09T04:58:46.429Z,94408.50
2022-12-09T05:01:21.654Z,94401.69
2022-12-09T05:03:53.953Z,94390.97
2022-12-09T05:06:22.804Z,94396.84
2022-12-09T05:08:50.528Z,94396.06
2022-12-09T05:11:19.116Z,94396.44
2022-12-09T05:13:46.594Z,94396.28
2022-12-09T05:16:17.154Z,94397.09
2022-12-09T05:18:45.053Z,94398.00
2022-12-09T05:21:15.375Z,94392.91
2022-12-09T05:23:43.074Z,94387.94
2022-12-09T05:26:13.141Z,94392.00
2022-12-09T05:28:40.342Z,94389.53
2022-12-09T05:31:11.585Z,94391.13
2022-12-09T05:33:38.693Z,94387.75
2022-12-09T05:36:11.107Z,94380.03
2022-12-09T05:38:38.686Z,94379.19
2022-12-09T05:41:05.964Z,94374.38
2022-12-09T05:43:34.096Z,94372.78
2022-12-09T05:46:05.030Z,94366.94
2022-12-09T05:48:31.834Z,94376.97
2022-12-09T05:51:04.185Z,94370.03
2022-12-09T05:53:31.522Z,94372.34
2022-12-09T05:55:58.427Z,94362.19
2022-12-09T05:58:25.839Z,94367.13
2022-12-09T06:00:56.666Z,94365.72
2022-12-09T06:03:24.443Z,94364.03
2022-12-09T06:05:52.244Z,94361.22
2022-12-09T06:08:19.710Z,94360.38
2022-12-09T06:10:47.266Z,94358.78
2022-12-09T06:13:14.648Z,94360.38
2022-12-09T06:15:41.650Z,94363.66
2022-12-09T06:18:08.883Z,94356.91
2022-12-09T06:20:40.629Z,94353.47
2022-12-09T06:23:07.906Z,94359.47
2022-12-09T06:25:34.993Z,94363.00
2022-12-09T06:28:02.155Z,94360.41
2022-12-09T06:30:29.160Z,94357.44
2022-12-09T06:32:55.829Z,94362.34
2022-12-09T06:35:22.790Z,94354.31
2022-12-09T06:37:52.857Z,94355.53
2022-12-09T06:40:22.139Z,94362.81
2022-12-09T06:42:52.504Z,94361.78
2022-12-09T06:45:20.555Z,94356.22
2022-12-09T06:47:47.803Z,94354.28
2022-12-09T06:50:15.417Z,94360.34
2022-12-09T06:52:42.312Z,94365.31
2022-12-09T06:55:10.312Z,94357.50
2022-12-09T06:57:37.735Z,94360.94
2022-12-09T07:00:05.662Z,94358.28
2022-12-09T07:02:36.727Z,94360.41
2022-12-09T07:05:04.714Z,94353.78
2022-12-09T07:07:32.459Z,94350.19
2022-12-09T07:10:02.995Z,94347.31
2022-12-09T07:12:29.840Z,94352.38
2022-12-09T07:14:56.433Z,94345.44
2022-12-09T07:17:23.348Z,94336.34
2022-12-09T07:19:50.145Z,94342.13
2022-12-09T07:22:17.318Z,94340.56
2022-12-09T07:24:44.603Z,94338.19
2022-12-09T07:27:19.215Z,94348.03
2022-12-09T07:29:47.309Z,94339.56
2022-12-09T07:32:14.146Z,94331.78
2022-12-09T07:34:41.405Z,94334.09
2022-12-09T07:37:08.525Z,94334.25
2022-12-09T07:39:35.417Z,94338.44
2022-12-09T07:42:02.278Z,94339.56
2022-12-09T07:44:30.539Z,94330.94
2022-12-09T07:46:57.587Z,94335.25
2022-12-09T07:49:24.896Z,94333.50
2022-12-09T07:51:52.079Z,94331.63
2022-12-09T07:54:20.565Z,94328.22
2022-12-09T07:56:47.946Z,94326.94
2022-12-09T07:59:16.179Z,94329.84
2022-12-09T08:01:43.172Z,94330.31
2022-12-09T08:04:10.271Z,94331.16
2022-12-09T08:06:38.008Z,94336.53
2022-12-09T08:09:08.149Z,94339.28
2022-12-09T08:11:35.248Z,94339.88
2022-12-09T08:14:10.990Z,94345.00
2022-12-09T08:16:40.368Z,94342.25
2022-12-09T08:19:07.927Z,94335.19
2022-12-09T08:21:35.301Z,94335.97
2022-12-09T08:24:05.923Z,94340.47
2022-12-09T08:26:34.086Z,94334.34
2022-12-09T08:29:01.385Z,94341.13
2022-12-09T08:31:28.854Z,94335.97
2022-12-09T08:33:57.695Z,94333.22
2022-12-09T08:36:27.228Z,94330.94
2022-12-09T08:38:54.676Z,94328.38
2022-12-09T08:41:35.375Z,94324.22
2022-12-09T08:44:08.029Z,94318.91
2022-12-09T08:46:37.114Z,94318.81
2022-12-09T08:49:05.294Z,94319.44
2022-12-09T08:51:32.551Z,94329.63
2022-12-09T08:54:00.491Z,94318.50
2022-12-09T08:56:27.887Z,94316.75
2022-12-09T08:58:55.553Z,94320.22
2022-12-09T09:01:32.245Z,94313.28
2022-12-09T09:04:21.789Z,94310.81
2022-12-09T09:06:51.584Z,94316.66
2022-12-09T09:09:20.376Z,94310.63
2022-12-09T09:11:47.517Z,94315.75
2022-12-09T09:14:15.741Z,94313.16
2022-12-09T09:16:44.268Z,94314.66
2022-12-09T09:19:21.608Z,94321.59
2022-12-09T09:21:48.833Z,94332.72
2022-12-09T09:24:18.217Z,94314.75
2022-12-09T09:26:46.300Z,94303.69
2022-12-09T09:29:15.158Z,94302.81
2022-12-09T09:31:42.286Z,94300.47
2022-12-09T09:34:10.182Z,94305.06
2022-12-09T09:36:37.062Z,94307.16
2022-12-09T09:39:04.476Z,94298.44
2022-12-09T09:41:44.549Z,94295.97
2022-12-09T09:44:19.937Z,94297.09
2022-12-09T09:46:49.074Z,94303.78
2022-12-09T09:49:48.513Z,94302.06
2022-12-09T09:52:21.136Z,94298.28
2022-12-09T09:54:47.993Z,94293.34
2022-12-09T09:57:32.659Z,94287.44
2022-12-09T10:00:09.334Z,94288.19
2022-12-09T10:02:58.125Z,94290.66
2022-12-09T10:05:34.223Z,94286.41
2022-12-09T10:08:26.429Z,94290.00
2022-12-09T10:11:17.017Z,94296.00
2022-12-09T10:13:52.681Z,94294.88
2022-12-09T10:16:40.523Z,94291.44
2022-12-09T10:19:30.871Z,94284.84
2022-12-09T10:22:02.486Z,94285.56
2022-12-09T10:24:37.348Z,94274.56
2022-12-09T10:27:25.760Z,94275.28
2022-12-09T10:30:10.555Z,94265.94
2022-12-09T10:32:39.312Z,94269.19
2022-12-09T10:35:24.704Z,94264.84
2022-12-09T10:37:54.266Z,94258.09
2022-12-09T10:40:24.913Z,94263.47
2022-12-09T10:43:13.914Z,94258.28
2022-12-09T10:46:16.758Z,94251.97
2022-12-09T10:48:37.663Z,94247.78
2022-12-09T10:51:10.657Z,94241.72
2022-12-09T10:53:43.954Z,94240.09
2022-12-09T10:56:18.675Z,94239.03
2022-12-09T10:58:45.361Z,94238.19
2022-12-09T11:01:15.366Z,94239.09
2022-12-09T11:03:51.782Z,94223.44
2022-12-09T11:06:33.248Z,94220.16
2022-12-09T11:09:02.340Z,94219.03
2022-12-09T11:11:52.927Z,94215.00
2022-12-09T11:14:24.776Z,94211.13
2022-12-09T11:16:58.220Z,94222.88
2022-12-09T11:19:30.892Z,94219.25
2022-12-09T11:22:23.071Z,94222.34
2022-12-09T11:24:53.710Z,94225.69
2022-12-09T11:27:33.952Z,94232.09
2022-12-09T11:30:20.320Z,94230.84
2022-12-09T11:33:16.229Z,94234.09
2022-12-09T11:35:43.477Z,94226.38
2022-12-09T11:38:40.688Z,94222.41
2022-12-09T11:41:13.429Z,94226.81
2022-12-09T11:43:48.556Z,94224.91
2022-12-09T11:46:29.557Z,94223.59
2022-12-09T11:48:59.156Z,94221.69
2022-12-09T11:51:29.898Z,94209.69
2022-12-09T11:54:05.687Z,94200.41
2022-12-09T11:56:34.605Z,94209.81
2022-12-09T11:59:21.020Z,94215.66
2022-12-09T12:02:11.660Z,94210.41
2022-12-09T12:05:07.950Z,94194.53
2022-12-09T12:07:59.639Z,94179.41
2022-12-09T12:10:35.489Z,94185.69
2022-12-09T12:13:26.103Z,94187.44
2022-12-09T12:16:09.826Z,94195.44
2022-12-09T12:18:44.868Z,94189.50
2022-12-09T12:21:27.412Z,94187.50
2022-12-09T12:24:25.927Z,94196.00
2022-12-09T12:27:07.050Z,94203.50
2022-12-09T12:29:33.568Z,94200.00
2022-12-09T12:32:37.730Z,94192.16
2022-12-09T12:35:32.223Z,94185.47
2022-12-09T12:38:18.053Z,94188.94
2022-12-09T12:41:14.448Z,94187.66
2022-12-09T12:44:38.597Z,94200.38
2022-12-09T12:47:24.019Z,94200.97
2022-12-09T12:50:20.029Z,94205.19
2022-12-09T12:52:56.418Z,94208.88
2022-12-09T12:55:26.396Z,94208.72
2022-12-09T12:58:10.364Z,94211.19
2022-12-09T13:00:52.467Z,94208.50
2022-12-09T13:03:19.035Z,94212.72
2022-12-09T13:05:50.284Z,94197.16
2022-12-09T13:08:40.251Z,94198.00
2022-12-09T13:11:12.820Z,94204.69
2022-12-09T13:13:56.983Z,94200.31
2022-12-09T13:16:31.582Z,94206.13
2022-12-09T13:19:18.688Z,94218.81
2022-12-09T13:21:45.950Z,94211.00
2022-12-09T13:24:31.664Z,94215.94
2022-12-09T13:27:24.584Z,94210.81
2022-12-09T13:30:11.719Z,94207.59
2022-12-09T13:32:38.321Z,94207.75
2022-12-09T13:35:22.501Z,94195.63
2022-12-09T13:37:52.402Z,94203.22
2022-12-09T13:40:38.240Z,94197.16
2022-12-09T13:43:20.433Z,94209.34
2022-12-09T13:45:54.219Z,94217.13
2022-12-09T13:48:20.841Z,94219.38
2022-12-09T13:50:51.546Z,94223.53
2022-12-09T13:53:21.222Z,94213.16
2022-12-09T13:55:57.590Z,94219.97
2022-12-09T13:58:41.407Z,94226.09
2022-12-09T14:01:10.905Z,94231.47
2022-12-09T14:03:48.964Z,94235.75
2022-12-09T14:06:18.347Z,94221.19
2022-12-09T14:08:49.975Z,94221.94
2022-12-09T14:11:36.696Z,94219.38
2022-12-09T14:14:25.055Z,94222.91
2022-12-09T14:16:56.189Z,94228.03
2022-12-09T14:19:25.769Z,94221.00
2022-12-09T14:22:21.107Z,94220.84
2022-12-09T14:25:19.611Z,94228.72
2022-12-09T14:28:11.710Z,94229.53
2022-12-09T14:30:53.468Z,94222.00
2022-12-09T14:33:22.695Z,94227.19
2022-12-09T14:35:54.029Z,94238.31
2022-12-09T14:39:23.174Z,94234.91
2022-12-09T14:42:01.327Z,94234.91
2022-12-09T14:44:49.214Z,94246.16
2022-12-09T14:47:21.089Z,94246.09
2022-12-09T14:49:50.006Z,94243.63
2022-12-09T14:52:27.258Z,94257.28
2022-12-09T14:54:57.787Z,94253.88
2022-12-09T14:57:34.285Z,94264.75
2022-12-09T15:00:00.922Z,94264.03
2022-12-09T15:02:30.202Z,94265.84
2022-12-09T15:05:00.101Z,94259.75
2022-12-09T15:07:28.564Z,94266.31
2022-12-09T15:10:01.140Z,94268.16
2022-12-09T15:12:31.970Z,94269.06
2022-12-09T15:15:11.205Z,94268.81
2022-12-09T15:17:50.566Z,94275.88
2022-12-09T15:20:30.656Z,94270.00
2022-12-09T15:23:00.817Z,94276.09
2022-12-09T15:25:28.242Z,94278.66
2022-12-09T15:28:05.929Z,94276.78
2022-12-09T15:30:35.372Z,94271.53
2022-12-09T15:33:03.181Z,94273.09
2022-12-09T15:35:33.150Z,94284.84
2022-12-09T15:38:07.730Z,94287.72
2022-12-09T15:40:36.291Z,94292.28
2022-12-09T15:43:10.636Z,94282.78
2022-12-09T15:45:42.599Z,94286.44
2022-12-09T15:48:20.829Z,94282.22
2022-12-09T15:50:50.270Z,94287.00
2022-12-09T15:53:30.556Z,94287.66
2022-12-09T15:56:03.959Z,94290.41
2022-12-09T15:58:40.302Z,94303.59
2022-12-09T16:01:07.877Z,94294.56
2022-12-09T16:03:35.972Z,94286.28
2022-12-09T16:06:11.877Z,94284.75
2022-12-09T16:08:44.737Z,94282.97
2022-12-09T16:11:12.107Z,94297.19
2022-12-09T16:14:06.476Z,94292.91
2022-12-09T16:16:49.727Z,94293.06
2022-12-09T16:19:31.422Z,94298.16
2022-12-09T16:21:59.741Z,94302.31
2022-12-09T16:24:44.089Z,94299.50
2022-12-09T16:27:21.369Z,94300.47
2022-12-09T16:29:54.022Z,94304.81
2022-12-09T16:32:34.202Z,94306.41
2022-12-09T16:35:48.014Z,94297.88
2022-12-09T16:38:18.086Z,94297.91
2022-12-09T16:40:44.604Z,94300.47
2022-12-09T16:43:20.489Z,94300.47
2022-12-09T16:45:49.102Z,94303.91
2022-12-09T16:48:17.279Z,94301.25
2022-12-09T16:50:58.940Z,94300.63
2022-12-09T16:53:31.320Z,94305.81
2022-12-09T16:56:00.587Z,94310.91
2022-12-09T16:58:29.013Z,94307.44
2022-12-09T17:00:56.271Z,94304.94
2022-12-09T17:03:44.753Z,94304.00
2022-12-09T17:06:16.736Z,94306.38
2022-12-09T17:08:43.668Z,94312.38
2022-12-09T17:11:10.864Z,94310.09
2022-12-09T17:13:37.880Z,94304.78
2022-12-09T17:16:05.813Z,94313.34
2022-12-09T17:18:32.567Z,94314.25
2022-12-09T17:21:07.448Z,94315.09
2022-12-09T17:23:39.699Z,94321.91
2022-12-09T17:26:09.397Z,94321.84
2022-12-09T17:28:36.103Z,94314.06
2022-12-09T17:31:08.518Z,94320.16
2022-12-09T17:33:35.181Z,94314.78
2022-12-09T17:36:01.731Z,94313.00
2022-12-09T17:38:31.725Z,94312.19
2022-12-09T17:41:05.731Z,94316.47
2022-12-09T17:43:32.753Z,94321.66
2022-12-09T17:46:00.504Z,94320.94
2022-12-09T17:48:28.658Z,94321.75
2022-12-09T17:50:55.508Z,94324.28
2022-12-09T17:53:22.369Z,94317.50
2022-12-09T17:55:49.160Z,94326.94
2022-12-09T17:58:15.857Z,94340.72
2022-12-09T18:00:42.497Z,94339.44
2022-12-09T18:03:13.973Z,94335.16
2022-12-09T18:05:44.780Z,94342.22
2022-12-09T18:08:11.523Z,94343.97
2022-12-09T18:10:38.287Z,94341.16
2022-12-09T18:13:04.970Z,94341.34
2022-12-09T18:15:31.552Z,94335.41
2022-12-09T18:17:58.426Z,94342.41
2022-12-09T18:20:25.054Z,94341.41
2022-12-09T18:22:51.650Z,94346.38
2022-12-09T18:25:18.331Z,94350.22
2022-12-09T18:27:44.968Z,94354.38
2022-12-09T18:30:11.972Z,94348.28
2022-12-09T18:32:38.598Z,94355.19
2022-12-09T18:35:08.241Z,94345.13
2022-12-09T18:37:34.852Z,94346.91
2022-12-09T18:40:01.976Z,94347.75
2022-12-09T18:42:28.636Z,94353.25
2022-12-09T18:44:55.278Z,94355.00
2022-12-09T18:47:21.941Z,94349.25
2022-12-09T18:49:48.645Z,94353.50
2022-12-09T18:52:15.298Z,94350.59
2022-12-09T18:54:41.893Z,94351.56
2022-12-09T18:57:08.530Z,94350.78
2022-12-09T18:59:35.178Z,94355.09
2022-12-09T19:02:01.784Z,94361.97
2022-12-09T19:04:29.811Z,94359.50
2022-12-09T19:07:00.359Z,94356.13
2022-12-09T19:09:33.508Z,94361.97
2022-12-09T19:12:22.898Z,94360.13
2022-12-09T19:14:49.269Z,94359.31
2022-12-09T19:17:15.869Z,94359.56
2022-12-09T19:19:42.477Z,94361.13
2022-12-09T19:22:09.065Z,94370.41
2022-12-09T19:24:41.362Z,94372.81
2022-12-09T19:27:09.752Z,94378.03
2022-12-09T19:29:36.539Z,94373.72
2022-12-09T19:32:03.313Z,94374.63
2022-12-09T19:34:30.756Z,94381.66
2022-12-09T19:37:00.295Z,94385.06
2022-12-09T19:39:31.224Z,94378.22
2022-12-09T19:41:58.952Z,94383.25
2022-12-09T19:44:52.567Z,94380.97
2022-12-09T19:47:13.251Z,94383.22
2022-12-09T19:49:42.086Z,94375.25
2022-12-09T19:52:08.692Z,94383.66
2022-12-09T19:54:35.324Z,94389.25
2022-12-09T19:57:01.926Z,94390.91
2022-12-09T19:59:28.806Z,94387.44
2022-12-09T20:01:55.850Z,94389.22
2022-12-09T20:04:48.245Z,94387.47
2022-12-09T20:07:16.811Z,94402.09
2022-12-09T20:09:43.455Z,94403.84
2022-12-09T20:12:10.157Z,94403.78
2022-12-09T20:14:36.767Z,94399.19
2022-12-09T20:17:03.440Z,94401.84
2022-12-09T20:19:31.357Z,94402.56
2022-12-09T20:21:58.011Z,94397.63
2022-12-09T20:24:24.786Z,94397.69
2022-12-09T20:26:51.525Z,94399.25
2022-12-09T20:29:18.438Z,94397.50
2022-12-09T20:31:45.043Z,94401.00
2022-12-09T20:34:14.859Z,94416.38
2022-12-09T20:36:43.675Z,94406.25
2022-12-09T20:39:20.831Z,94410.47
2022-12-09T20:41:48.578Z,94404.38
2022-12-09T20:44:16.395Z,94412.06
2022-12-09T20:46:49.096Z,94416.31
2022-12-09T20:49:15.796Z,94412.28
2022-12-09T20:51:46.993Z,94403.13
2022-12-09T20:54:13.813Z,94407.31
2022-12-09T20:56:41.030Z,94408.81
2022-12-09T20:59:08.886Z,94408.53
2022-12-09T21:01:36.891Z,94401.59
2022-12-09T21:04:06.058Z,94406.09
2022-12-09T21:06:35.717Z,94409.59
2022-12-09T21:09:08.012Z,94407.72
2022-12-09T21:11:35.730Z,94413.66
2022-12-09T21:14:04.703Z,94405.03
2022-12-09T21:16:33.816Z,94408.66
2022-12-09T21:19:02.502Z,94407.03
2022-12-09T21:21:32.939Z,94411.28
2022-12-09T21:24:00.418Z,94409.28
2022-12-09T21:26:27.930Z,94414.44
2022-12-09T21:28:56.163Z,94411.91
2022-12-09T21:31:32.974Z,94403.34
2022-12-09T21:34:03.424Z,94416.28
2022-12-09T21:36:33.652Z,94408.66
2022-12-09T21:39:00.676Z,94406.97
2022-12-09T21:41:29.995Z,94415.41
2022-12-09T21:43:57.886Z,94411.09
2022-12-09T21:46:29.585Z,94412.09
2022-12-09T21:49:01.733Z,94418.00
2022-12-09T21:51:29.897Z,94410.13
2022-12-09T21:53:56.504Z,94424.91
2022-12-09T21:56:25.558Z,94413.91
2022-12-09T21:58:55.225Z,94419.78
2022-12-09T22:01:34.434Z,94429.97
2022-12-09T22:04:02.905Z,94420.31
2022-12-09T22:06:29.890Z,94425.41
2022-12-09T22:08:59.642Z,94427.00
2022-12-09T22:11:29.739Z,94421.78
2022-12-09T22:13:58.429Z,94425.84
2022-12-09T22:16:28.860Z,94421.69
2022-12-09T22:18:57.607Z,94425.09
2022-12-09T22:21:27.663Z,94433.63
2022-12-09T22:23:57.965Z,94427.75
2022-12-09T22:26:25.651Z,94424.31
2022-12-09T22:28:52.761Z,94421.84
2022-12-09T22:31:25.698Z,94425.94
2022-12-09T22:33:54.699Z,94432.88
2022-12-09T22:36:22.575Z,94438.72
2022-12-09T22:38:49.953Z,94438.50
2022-12-09T22:41:20.216Z,94443.63
2022-12-09T22:43:48.999Z,94439.41
2022-12-09T22:46:20.673Z,94447.97
2022-12-09T22:48:47.779Z,94448.03
2022-12-09T22:51:17.379Z,94445.38
2022-12-09T22:53:44.806Z,94450.00
2022-12-09T22:56:12.397Z,94455.13
2022-12-09T22:58:39.750Z,94458.66
2022-12-09T23:01:11.888Z,94456.81
2022-12-09T23:03:39.468Z,94453.38
2022-12-09T23:06:07.253Z,94456.50
2022-12-09T23:08:34.354Z,94460.81
2022-12-09T23:11:06.869Z,94447.88
2022-12-09T23:13:39.171Z,94449.56
2022-12-09T23:16:13.040Z,94446.09
2022-12-09T23:18:40.445Z,94446.03
2022-12-09T23:21:10.181Z,94439.91
2022-12-09T23:23:36.955Z,94442.44
2022-12-09T23:26:07.198Z,94445.03
2022-12-09T23:28:41.576Z,94440.09
2022-12-09T23:31:10.310Z,94441.59
2022-12-09T23:33:38.690Z,94433.78
2022-12-09T23:36:14.673Z,94437.13
2022-12-09T23:38:44.464Z,94425.75
2022-12-09T23:41:12.475Z,94431.19
2022-12-09T23:43:39.225Z,94420.91
2022-12-09T23:46:14.961Z,94424.34
2022-12-09T23:48:43.029Z,94424.06
2022-12-09T23:51:31.521Z,94427.78
2022-12-09T23:54:00.365Z,94431.97
2022-12-09T23:56:29.424Z,94435.25
2022-12-09T23:58:59.330Z,94431.00
